Stations météo

réclame
Mon MeteoGroup
Cassley, Grande-Bretagne (99003): Température de l'air & dewpoint: 15.02.2019 14:00:00 - 21.02.2019 14:00:00 (GMT)Cassley, Grande-Bretagne (99003): Quantités de précipitations: 15.02.2019 14:00:00 - 21.02.2019 14:00:00 (GMT)
Date & Time tt [°C] td [°C] rr [mm]
21.02.2019 14:00:00 15,3 11,2 0,0
21.02.2019 13:00:00 15,0 11,1 0,0
21.02.2019 12:00:00 15,7 11,8 0,0
21.02.2019 11:00:00 7,8 6,3 0,0
21.02.2019 10:00:00 6,6 5,3 0,0
21.02.2019 09:00:00 5,5 4,6 0,0
21.02.2019 08:00:00 5,1 4,3 0,0
21.02.2019 07:00:00 4,8 4,2 0,0
21.02.2019 06:00:00 4,6 4,1 0,0
21.02.2019 05:00:00 6,0 3,9 0,0
21.02.2019 04:00:00 5,5 4,2 0,0
21.02.2019 03:00:00 6,8 4,6 0,0
21.02.2019 02:00:00 8,6 4,2 0,0
21.02.2019 01:00:00 9,6 4,3 0,0
21.02.2019 00:00:00 8,4 4,6 0,0
20.02.2019 23:00:00 9,0 5,6 0,0
20.02.2019 22:00:00 8,9 5,5 0,0
20.02.2019 21:00:00 8,7 5,4 0,0
20.02.2019 20:00:00 8,7 6,2 0,0
20.02.2019 19:00:00 9,0 6,3 0,0
20.02.2019 18:00:00 8,5 6,9 0,4
20.02.2019 17:00:00 9,6 8,0 0,6
20.02.2019 16:00:00 11,1 9,1 0,2
20.02.2019 15:00:00 - - -
20.02.2019 14:00:00 - - -
20.02.2019 13:00:00 - - 0,0
20.02.2019 12:00:00 12,0 9,6 0,0
20.02.2019 11:00:00 10,8 9,6 0,0
20.02.2019 10:00:00 10,1 9,0 0,0
20.02.2019 09:00:00 9,2 9,1 0,2
20.02.2019 08:00:00 7,7 7,7 0,0
20.02.2019 07:00:00 5,7 5,6 0,4
20.02.2019 06:00:00 5,4 5,4 2,2
20.02.2019 05:00:00 5,0 5,0 2,4
20.02.2019 04:00:00 5,2 5,1 1,2
20.02.2019 03:00:00 4,6 4,5 1,0
20.02.2019 02:00:00 4,5 4,4 1,2
20.02.2019 01:00:00 4,4 4,3 1,8
20.02.2019 00:00:00 4,5 4,2 2,0
19.02.2019 23:00:00 4,6 4,3 3,0
19.02.2019 22:00:00 4,4 4,1 1,0
19.02.2019 21:00:00 4,7 4,1 0,4
19.02.2019 20:00:00 4,5 4,0 0,4
19.02.2019 19:00:00 4,7 4,1 0,0
19.02.2019 18:00:00 5,0 4,4 0,0
19.02.2019 17:00:00 5,6 4,2 0,0
19.02.2019 16:00:00 6,2 4,8 0,0
19.02.2019 15:00:00 7,3 4,1 0,0
19.02.2019 14:00:00 7,2 4,9 0,0
19.02.2019 13:00:00 6,9 3,5 0,0
19.02.2019 12:00:00 6,4 3,7 0,0
19.02.2019 11:00:00 5,8 4,2 0,0
19.02.2019 10:00:00 6,1 4,3 0,0
19.02.2019 09:00:00 5,2 3,9 0,2
19.02.2019 08:00:00 4,7 3,3 0,0
19.02.2019 07:00:00 4,4 2,7 0,8
19.02.2019 06:00:00 5,3 3,8 0,0
19.02.2019 05:00:00 5,0 3,5 0,0
19.02.2019 04:00:00 5,1 3,3 0,2
19.02.2019 03:00:00 5,4 2,7 0,2
19.02.2019 02:00:00 5,3 3,5 0,0
19.02.2019 01:00:00 4,8 2,8 0,4
19.02.2019 00:00:00 4,8 2,7 0,2
18.02.2019 23:00:00 5,5 3,6 0,8
18.02.2019 22:00:00 5,7 4,6 0,2
18.02.2019 21:00:00 5,9 5,0 1,0
18.02.2019 20:00:00 6,1 4,6 0,4
18.02.2019 19:00:00 6,2 4,6 1,6
18.02.2019 18:00:00 6,3 4,7 0,0
18.02.2019 17:00:00 6,1 4,5 1,0
18.02.2019 16:00:00 7,1 4,4 0,0
18.02.2019 15:00:00 6,9 4,4 1,4
18.02.2019 14:00:00 6,9 5,2 1,4
18.02.2019 13:00:00 7,1 4,7 0,6
18.02.2019 12:00:00 6,6 4,0 0,2
18.02.2019 11:00:00 8,0 3,7 0,0
18.02.2019 10:00:00 7,4 3,0 0,0
18.02.2019 09:00:00 7,1 2,7 0,0
18.02.2019 08:00:00 6,4 2,2 0,0
18.02.2019 07:00:00 6,2 1,6 0,0
18.02.2019 06:00:00 5,0 1,6 0,2
18.02.2019 05:00:00 5,1 1,9 0,0
18.02.2019 04:00:00 6,6 3,4 0,0
18.02.2019 03:00:00 5,0 3,5 0,0
18.02.2019 02:00:00 4,0 2,2 0,0
18.02.2019 01:00:00 4,5 3,2 0,0
18.02.2019 00:00:00 5,2 2,6 0,0
17.02.2019 23:00:00 5,4 2,8 0,0
17.02.2019 22:00:00 5,3 2,6 0,0
17.02.2019 21:00:00 5,7 2,7 0,0
17.02.2019 20:00:00 5,4 2,3 0,0
17.02.2019 19:00:00 6,0 2,5 0,0
17.02.2019 18:00:00 6,0 3,2 0,0
17.02.2019 17:00:00 5,8 3,1 0,0
17.02.2019 16:00:00 7,8 4,7 0,2
17.02.2019 15:00:00 7,2 4,3 1,6
17.02.2019 14:00:00 10,0 6,8 0,0
17.02.2019 13:00:00 11,6 7,1 0,0
17.02.2019 12:00:00 11,4 7,1 0,0
17.02.2019 11:00:00 - - 0,0
17.02.2019 10:00:00 9,4 6,6 0,0
17.02.2019 09:00:00 7,3 5,6 0,0
17.02.2019 08:00:00 7,6 6,2 0,0
17.02.2019 07:00:00 5,4 4,2 0,0
17.02.2019 06:00:00 5,8 4,9 0,0
17.02.2019 05:00:00 5,6 4,7 0,0
17.02.2019 04:00:00 5,7 4,9 0,0
17.02.2019 03:00:00 6,0 5,0 0,0
17.02.2019 02:00:00 4,8 4,0 0,0
17.02.2019 01:00:00 5,2 4,3 0,0
17.02.2019 00:00:00 4,8 4,1 0,0
16.02.2019 23:00:00 5,4 4,3 0,0
16.02.2019 22:00:00 5,7 4,5 0,0
16.02.2019 21:00:00 6,4 4,8 0,0
16.02.2019 20:00:00 5,9 4,6 0,0
16.02.2019 19:00:00 5,9 4,7 0,0
16.02.2019 18:00:00 6,6 4,9 0,0
16.02.2019 17:00:00 7,1 4,4 0,0
16.02.2019 16:00:00 7,9 5,6 0,0
16.02.2019 15:00:00 8,4 6,3 0,0
16.02.2019 14:00:00 8,7 6,8 0,4
16.02.2019 13:00:00 9,5 7,2 0,2
16.02.2019 12:00:00 10,3 8,1 0,0
16.02.2019 11:00:00 6,8 6,5 0,2
16.02.2019 10:00:00 6,4 6,0 0,0
16.02.2019 09:00:00 5,4 4,8 0,0
16.02.2019 08:00:00 6,4 5,6 0,0
16.02.2019 07:00:00 7,9 6,7 0,0
16.02.2019 06:00:00 7,4 5,6 0,0
16.02.2019 05:00:00 8,4 5,9 0,0
16.02.2019 04:00:00 8,9 6,0 0,0
16.02.2019 03:00:00 9,2 6,1 0,0
16.02.2019 02:00:00 7,3 5,3 0,0
16.02.2019 01:00:00 8,5 5,3 0,2
16.02.2019 00:00:00 9,1 5,9 0,6
15.02.2019 23:00:00 9,4 6,9 4,4
15.02.2019 22:00:00 8,5 8,3 1,0
15.02.2019 21:00:00 9,5 8,4 1,0
15.02.2019 20:00:00 9,7 8,2 0,4
15.02.2019 19:00:00 10,9 7,6 0,0
15.02.2019 18:00:00 11,1 6,9 0,0
15.02.2019 17:00:00 11,1 6,5 0,0
15.02.2019 16:00:00 11,5 6,1 0,0
15.02.2019 15:00:00 13,0 4,9 0,0
15.02.2019 14:00:00 12,9 4,5 0,0

tt = Température de l'air
td = dewpoint
rr = Quantités de précipitations

stations d'obs. à proximité